Fairfield, WA (99012)

2:52 AM PDT on August 23, 2014 (GMT -0700)
ITD Lake Creek US-95 ID US | Change Station
CLOSE
Current Station
Personal Weather Station
Location: Worley, ID
Elevation: 2581 ft
Nearby Weather Stations

Elev 2581 ft 47.49 °N, 116.99 °W | Updated 53 minutes ago

Scattered Clouds
Scattered Clouds
59 °F
Feels Like 59 °F
N
6
Wind Variable Wind from North
Gusts 14.0 mph

Today
High -- | Low -- °F
--% Chance of Precip.
Yesterday
High -- | Low -- °F
Precip. -- in
5:55 AM 7:45 PM
Waning Crescent, 4% visible
Pressure 30.09 in
Visibility 10.0 miles
Clouds Scattered Clouds 9000 ft
Dew Point 45 °F
Humidity 58%
Rainfall 0.81 in
Snow Depth Not available.
UV 0 out of 12
Pollen 6.60 out of 12
PM2.5 Good
Flu Activity Not available.
METAR KSFF 230853Z AUTO 00000KT 10SM SCT090 14/09 A3009

More Conditions Fewer Conditions

Pressure 30.09 in
Visibility 10.0 miles
Clouds Scattered Clouds 9000 ft
Dew Point 45 °F
Humidity 58%
Rainfall 0.81 in
Snow Depth Not available.
UV 0 out of 12
Pollen 6.60 out of 12
PM2.5 Good
Flu Activity Not available.
METAR KSFF 230853Z AUTO 00000KT 10SM SCT090 14/09 A3009

More Conditions Fewer Conditions

10-Day Weather Forecast

Almanac

Astronomy

Aug. 23, 2014 Rise Set
Actual Time 5:55 AM PDT 7:45 PM PDT
Civil Twilight 5:23 AM PDT 8:18 PM PDT
Nautical Twilight 4:42 AM PDT 8:58 PM PDT
Astronomical Twilight 3:58 AM PDT 9:42 PM PDT
Moon 4:13 AM PDT 6:33 PM PDT
Length of Visible Light 14h 55m
Length of Day
13h 50m
Tomorrow will be 3m 12s shorter.
Waning Crescent, 4% of the Moon is Illuminated
Today
Waning Crescent
Aug 25
New
Sep 2
First Quarter
Sep 8
Full
Sep 15
Last Quarter

Today's Extremes

State Highs State Lows

Community

WunderPhotos

Upload Photos

1,746,396 photos uploaded!

WunderBlogs® & News

By Dr. Jeff Masters
Director of Meteorology, Weather Underground
By Kari Strenfel
Meteorologist, Weather Underground
By Christopher C. Burt
Weather Historian, Weather Underground
August 23, 2014
August 23, 2014
August 22, 2014

Nearby

Air Quality

  Air Quality AQ Index Pollutant
Yesterday Good
OZONE
Yesterday Good
PM10
Current Good
PM2.5
Saturday Good
PM10
Saturday Good
OZONE
Sunday Good
PM10
Sunday Good
OZONE
Monday Good
PM10
Monday Good
OZONE

Snow Depth

Station Depth Elevation
Quartz Peak 1 in 4700 ft
Sourdough Gulch 0 in 4000 ft
Spruce Springs 0 in 5700 ft
Bunchgrass Meadow 0 in 5000 ft
Touchet 0 in 5530 ft

Earthquake Activity

City Distance Mag. Time & Date
No recent earthquake activity has been reported nearby.
Minimum magnitude displayed is 2.5.

Coastal Water Temperatures

Place Temperature
No Stations Reporting

Nearby Weather Stations